Time;durP1;ratioP1;P1;durP2;ratioP2;P2;SDS_P1;SDS_P2;PMS_P1;PMS_P2;Temp;Humidity;BMP_temperature;BMP_pressure;BME280_temperature;BME280_humidity;BME280_pressure;Samples;Min_cycle;Max_cycle;Signal;HPM_P1;HPM_P2
2022/10/22 00:01:51;;;;;;;5.17;2.13;;;19.50;74.70;20.60;100193.00;;;;5089558;28;20230;-54
2022/10/22 00:04:17;;;;;;;3.93;2.20;;;19.50;74.70;20.50;100200.00;;;;5089225;28;20195;-54
2022/10/22 00:06:43;;;;;;;5.07;1.87;;;19.50;74.70;20.50;100198.00;;;;5089122;28;20250;-54
2022/10/22 00:09:13;;;;;;;3.40;1.87;;;19.50;74.70;20.50;100201.00;;;;5090865;28;20212;-53
2022/10/22 00:11:39;;;;;;;2.00;1.73;;;19.40;74.60;20.50;100201.00;;;;5096760;28;20234;-54
2022/10/22 00:14:04;;;;;;;2.60;1.90;;;19.40;74.70;20.50;100201.00;;;;5090353;28;20173;-54
2022/10/22 00:16:30;;;;;;;3.87;2.00;;;19.40;74.70;20.50;100201.00;;;;5088794;28;20191;-55
2022/10/22 00:18:56;;;;;;;3.73;1.90;;;19.40;74.70;20.50;100204.00;;;;5088143;28;20234;-54
2022/10/22 00:21:22;;;;;;;2.63;2.00;;;19.40;74.70;20.50;100211.00;;;;5088731;28;20250;-54
2022/10/22 00:23:47;;;;;;;2.47;1.90;;;19.40;74.70;20.50;100207.00;;;;5088804;28;20170;-54
2022/10/22 00:26:13;;;;;;;3.50;2.03;;;19.40;74.70;20.50;100213.00;;;;5088479;28;20173;-54
2022/10/22 00:28:39;;;;;;;2.33;1.80;;;19.40;74.70;20.50;100205.00;;;;5088644;28;20198;-55
2022/10/22 00:31:04;;;;;;;3.07;1.80;;;19.40;74.50;20.30;100212.00;;;;5088251;28;20179;-55
2022/10/22 00:33:30;;;;;;;3.33;1.87;;;19.40;74.50;20.50;100204.00;;;;5086370;28;20178;-53
2022/10/22 00:35:56;;;;;;;2.20;1.90;;;19.40;74.50;20.50;100215.00;;;;5088329;28;20183;-55
2022/10/22 00:38:22;;;;;;;3.47;1.90;;;19.40;74.50;20.40;100215.00;;;;5088440;28;20232;-54
2022/10/22 00:40:47;;;;;;;2.00;1.80;;;19.40;74.50;20.40;100210.00;;;;5088392;28;20741;-54
2022/10/22 00:43:16;;;;;;;2.43;1.97;;;19.40;74.50;20.40;100222.00;;;;5088213;28;20381;-54
2022/10/22 00:45:41;;;;;;;2.00;1.80;;;19.40;74.50;20.40;100223.00;;;;5088238;28;20752;-54
2022/10/22 00:48:30;;;;;;;2.50;2.00;;;19.40;74.50;20.40;100204.00;;;;5088374;28;20198;-54
2022/10/22 00:51:02;;;;;;;2.30;2.07;;;19.40;74.50;20.40;100207.00;;;;5087111;28;20173;-55
2022/10/22 00:53:36;;;;;;;2.40;1.80;;;19.40;74.50;20.40;100199.00;;;;5087255;28;20307;-54
2022/10/22 00:56:03;;;;;;;2.13;1.70;;;19.40;74.50;20.40;100207.00;;;;5089555;28;20204;-54
2022/10/22 00:58:31;;;;;;;2.00;1.80;;;19.30;74.40;20.40;100203.00;;;;5092076;28;20305;-55
2022/10/22 01:00:57;;;;;;;2.00;1.90;;;19.40;74.70;20.40;100220.00;;;;5092093;28;20164;-54
2022/10/22 01:03:23;;;;;;;1.93;1.83;;;19.40;74.50;20.40;100207.00;;;;5088418;28;20176;-54
2022/10/22 01:05:59;;;;;;;2.07;1.90;;;19.30;74.50;20.40;100215.00;;;;5086830;28;20256;-55
2022/10/22 01:08:55;;;;;;;1.90;1.80;;;19.40;74.70;20.40;100201.00;;;;5087312;28;20193;-54
2022/10/22 01:11:48;;;;;;;2.13;1.90;;;19.30;74.60;20.40;100204.00;;;;5087126;28;20209;-54
2022/10/22 01:14:32;;;;;;;2.23;1.70;;;19.30;74.60;20.40;100211.00;;;;5086634;28;20342;-55
2022/10/22 01:17:09;;;;;;;2.73;1.90;;;19.30;74.70;20.40;100210.00;;;;5087455;28;20252;-55
2022/10/22 01:20:02;;;;;;;2.03;1.80;;;19.30;74.70;20.30;100202.00;;;;5070165;28;20281;-54
2022/10/22 01:22:33;;;;;;;2.10;1.90;;;19.30;75.50;20.30;100187.00;;;;5089153;28;20165;-54
2022/10/22 01:25:26;;;;;;;2.27;1.80;;;19.30;74.70;20.30;100193.00;;;;5094037;28;20228;-54
2022/10/22 01:28:22;;;;;;;1.67;1.57;;;19.30;74.80;20.30;100200.00;;;;5087981;28;20162;-55
2022/10/22 01:30:48;;;;;;;1.83;1.73;;;19.30;74.90;20.30;100188.00;;;;5071005;28;20264;-54
2022/10/22 01:33:16;;;;;;;2.00;1.80;;;19.30;74.70;20.30;100172.00;;;;5086482;28;20177;-54
2022/10/22 01:35:43;;;;;;;1.90;1.73;;;19.20;74.70;20.30;100182.00;;;;5086938;28;20183;-55
2022/10/22 01:38:13;;;;;;;4.20;1.90;;;19.30;74.80;20.30;100179.00;;;;5086703;28;20637;-54
2022/10/22 01:40:38;;;;;;;2.57;1.90;;;19.20;74.70;20.30;100181.00;;;;5086817;28;20170;-55
2022/10/22 01:43:06;;;;;;;2.10;1.90;;;19.20;74.70;20.30;100175.00;;;;5086984;28;20180;-53
2022/10/22 01:45:37;;;;;;;2.00;1.80;;;19.20;74.70;20.30;100163.00;;;;5091557;28;20340;-54
2022/10/22 01:48:06;;;;;;;1.80;1.70;;;19.30;74.80;20.30;100182.00;;;;5090253;28;20536;-54
2022/10/22 01:51:07;;;;;;;1.90;1.80;;;19.20;74.80;20.30;100169.00;;;;5091673;28;20171;-53
2022/10/22 01:53:38;;;;;;;1.97;1.80;;;19.20;74.80;20.20;100170.00;;;;5069260;28;20193;-54
2022/10/22 01:56:15;;;;;;;2.10;1.90;;;19.20;74.90;20.20;100175.00;;;;5091580;28;20176;-56
2022/10/22 01:59:00;;;;;;;2.90;2.00;;;19.10;74.80;20.30;100176.00;;;;5090017;28;20260;-54
2022/10/22 02:01:33;;;;;;;2.27;1.70;;;19.20;74.80;20.20;100170.00;;;;5090341;28;20151;-53
2022/10/22 02:04:14;;;;;;;1.80;1.70;;;19.20;74.80;20.20;100176.00;;;;5089616;28;20161;-54
2022/10/22 02:06:40;;;;;;;1.87;1.70;;;19.20;74.80;20.20;100167.00;;;;5094096;28;20248;-55
2022/10/22 02:09:06;;;;;;;2.00;1.80;;;19.20;74.80;20.20;100176.00;;;;5095463;28;20277;-54
2022/10/22 02:11:31;;;;;;;1.70;1.60;;;19.20;74.80;20.20;100167.00;;;;5094947;28;20317;-54
2022/10/22 02:13:59;;;;;;;1.90;1.80;;;19.20;74.90;20.20;100170.00;;;;5089468;28;20177;-53
2022/10/22 02:16:44;;;;;;;2.00;1.67;;;19.20;74.90;20.20;100179.00;;;;5090011;28;20193;-54
2022/10/22 02:19:21;;;;;;;1.93;1.70;;;19.20;74.90;20.20;100188.00;;;;5090365;28;20211;-55
2022/10/22 02:21:47;;;;;;;2.10;1.90;;;19.20;74.90;20.20;100186.00;;;;5090076;28;20168;-56
2022/10/22 02:24:13;;;;;;;1.90;1.80;;;19.20;74.90;20.20;100107.00;;;;5091013;28;20169;-55
2022/10/22 02:26:47;;;;;;;2.40;1.87;;;19.20;74.90;20.20;100200.00;;;;5090192;28;20638;-54
2022/10/22 02:29:38;;;;;;;2.00;1.80;;;19.20;74.90;20.20;100195.00;;;;5089628;28;20193;-56
2022/10/22 02:32:05;;;;;;;1.90;1.80;;;19.20;74.90;20.20;100192.00;;;;5089824;28;20181;-55
2022/10/22 02:34:31;;;;;;;1.90;1.80;;;19.20;74.90;20.20;100192.00;;;;5089202;28;20185;-55
2022/10/22 02:36:58;;;;;;;2.83;1.77;;;19.20;74.90;20.20;100194.00;;;;5096879;28;20173;-54
2022/10/22 02:39:24;;;;;;;2.27;1.80;;;19.20;74.90;20.20;100187.00;;;;5092632;28;20208;-55
2022/10/22 02:41:49;;;;;;;1.80;1.70;;;19.20;74.90;20.20;100183.00;;;;5090735;28;20166;-54
2022/10/22 02:44:19;;;;;;;2.00;1.90;;;19.20;74.90;20.20;100193.00;;;;5090493;28;20176;-54
2022/10/22 02:46:45;;;;;;;2.10;1.90;;;19.20;74.90;20.20;100200.00;;;;5089465;28;20181;-55
2022/10/22 02:49:10;;;;;;;1.80;1.70;;;19.10;74.90;20.20;100213.00;;;;5089061;28;20213;-54
2022/10/22 02:51:36;;;;;;;2.00;1.80;;;19.20;75.00;20.20;100216.00;;;;5090430;28;20177;-55
2022/10/22 02:54:02;;;;;;;2.00;1.90;;;19.20;74.90;20.20;100198.00;;;;5090185;28;20729;-54
2022/10/22 02:56:28;;;;;;;1.90;1.70;;;19.10;74.90;20.20;100207.00;;;;5089914;28;20234;-54
2022/10/22 02:58:53;;;;;;;3.03;2.00;;;19.10;75.00;20.20;100206.00;;;;5090360;28;20649;-55
2022/10/22 03:01:19;;;;;;;2.20;1.70;;;19.10;75.00;20.20;100205.00;;;;5090523;28;20174;-54
2022/10/22 03:03:45;;;;;;;2.03;1.87;;;19.10;75.00;20.20;100194.00;;;;5090056;28;20165;-55
2022/10/22 03:06:10;;;;;;;2.07;1.70;;;19.10;75.10;20.20;100200.00;;;;5090144;28;20171;-54
2022/10/22 03:08:36;;;;;;;1.77;1.67;;;19.20;75.10;20.20;100189.00;;;;5090237;28;20254;-55
2022/10/22 03:11:02;;;;;;;1.80;1.70;;;19.10;75.10;20.20;100188.00;;;;5090266;28;20230;-54
2022/10/22 03:13:28;;;;;;;1.87;1.77;;;19.10;75.10;20.10;100184.00;;;;5089512;28;20655;-56
2022/10/22 03:15:53;;;;;;;1.80;1.70;;;19.10;75.10;20.10;100199.00;;;;5089816;28;20180;-54
2022/10/22 03:18:19;;;;;;;1.80;1.70;;;19.10;75.10;20.10;100199.00;;;;5089454;28;20280;-53
2022/10/22 03:20:45;;;;;;;1.90;1.80;;;19.10;75.10;20.10;100195.00;;;;5089650;28;20629;-54
2022/10/22 03:23:11;;;;;;;2.13;1.90;;;19.10;75.10;20.10;100189.00;;;;5089356;28;20230;-55
2022/10/22 03:25:38;;;;;;;2.00;1.80;;;19.10;75.10;20.10;100192.00;;;;5088506;28;20169;-53
2022/10/22 03:28:05;;;;;;;2.10;1.70;;;19.10;75.20;20.10;100196.00;;;;5088293;28;20169;-53
2022/10/22 03:30:31;;;;;;;5.30;2.10;;;19.10;75.20;20.10;100206.00;;;;5089331;28;20280;-55
2022/10/22 03:32:57;;;;;;;3.50;2.00;;;19.10;75.50;20.10;100211.00;;;;5089699;28;20657;-53
2022/10/22 03:35:23;;;;;;;4.87;2.07;;;19.10;75.40;20.10;100212.00;;;;5089336;28;20771;-54
2022/10/22 03:37:49;;;;;;;4.57;1.80;;;19.10;75.30;20.10;100209.00;;;;5088199;28;20391;-55
2022/10/22 03:40:14;;;;;;;1.90;1.80;;;19.10;75.40;20.10;100209.00;;;;5079941;28;20204;-53
2022/10/22 03:42:40;;;;;;;2.70;2.07;;;19.10;75.30;20.10;100206.00;;;;5068087;28;20207;-55
2022/10/22 03:45:07;;;;;;;3.00;1.70;;;19.10;75.30;20.10;100210.00;;;;5067258;28;20157;-54
2022/10/22 03:47:33;;;;;;;2.20;2.00;;;19.00;75.40;20.10;100154.00;;;;5076627;28;20180;-54
2022/10/22 03:49:59;;;;;;;4.17;2.23;;;19.00;75.30;20.10;100198.00;;;;5075503;28;20570;-54
2022/10/22 03:52:24;;;;;;;4.37;2.13;;;19.00;75.40;20.10;100213.00;;;;5067485;28;20165;-53
2022/10/22 03:54:50;;;;;;;1.90;1.80;;;19.10;75.50;20.10;100208.00;;;;5068737;28;20587;-54
2022/10/22 03:57:16;;;;;;;2.10;1.90;;;19.00;75.30;20.10;100208.00;;;;5068313;28;20694;-53
2022/10/22 03:59:44;;;;;;;2.73;1.70;;;19.00;75.30;20.10;100214.00;;;;5067079;28;20208;-54
2022/10/22 04:02:10;;;;;;;2.43;1.80;;;19.00;75.40;20.10;100217.00;;;;5068718;28;20253;-54
2022/10/22 04:04:36;;;;;;;2.20;2.00;;;19.00;75.20;20.10;100218.00;;;;5068347;28;20681;-55
2022/10/22 04:07:02;;;;;;;2.57;2.00;;;19.00;75.30;20.10;100208.00;;;;5068629;28;20166;-54
2022/10/22 04:09:33;;;;;;;3.17;2.10;;;19.00;75.40;20.10;100223.00;;;;5065780;28;20199;-54
2022/10/22 04:11:59;;;;;;;2.77;1.90;;;18.90;75.20;20.10;100223.00;;;;5068401;28;20609;-54
2022/10/22 04:14:25;;;;;;;2.07;1.80;;;19.00;75.40;20.10;100231.00;;;;5068044;28;20178;-54
2022/10/22 04:16:51;;;;;;;3.20;1.97;;;18.90;75.30;20.10;100233.00;;;;5068004;28;20176;-54
2022/10/22 04:19:17;;;;;;;2.40;2.00;;;19.00;75.40;20.10;100239.00;;;;5067800;28;20205;-54
2022/10/22 04:21:42;;;;;;;3.30;2.00;;;19.00;75.40;20.10;100236.00;;;;5067926;28;20517;-54
2022/10/22 04:24:08;;;;;;;2.27;2.00;;;19.00;75.40;20.10;100239.00;;;;5066527;28;20174;-54
2022/10/22 04:26:34;;;;;;;2.30;2.10;;;19.00;75.40;20.00;100243.00;;;;5068187;28;20169;-54
2022/10/22 04:29:00;;;;;;;4.30;2.20;;;18.90;75.20;20.10;100250.00;;;;5068221;28;20193;-54
2022/10/22 04:31:26;;;;;;;3.07;2.00;;;18.90;75.20;20.00;100252.00;;;;5068159;28;20179;-54
2022/10/22 04:33:56;;;;;;;3.27;2.10;;;18.90;75.20;20.00;100243.00;;;;5069146;28;20304;-54
2022/10/22 04:36:22;;;;;;;2.17;1.70;;;18.90;75.40;20.00;100246.00;;;;5068179;28;20652;-54
2022/10/22 04:38:55;;;;;;;3.77;2.10;;;18.90;75.40;20.00;100262.00;;;;5068873;28;20288;-53
2022/10/22 04:41:27;;;;;;;7.20;2.27;;;18.90;75.40;20.00;100264.00;;;;5069788;28;20591;-53
2022/10/22 04:43:54;;;;;;;3.63;2.03;;;18.90;75.50;20.00;100251.00;;;;5070636;28;20154;-53
2022/10/22 04:46:19;;;;;;;2.93;1.93;;;18.90;75.50;20.00;100264.00;;;;5068403;28;20634;-53
2022/10/22 04:48:45;;;;;;;6.40;2.13;;;18.90;75.60;20.00;100262.00;;;;5068682;28;20193;-54
2022/10/22 04:51:16;;;;;;;3.53;1.90;;;18.90;75.60;20.00;100257.00;;;;5067233;28;20227;-53
2022/10/22 04:53:42;;;;;;;3.90;2.30;;;18.90;75.80;20.00;100273.00;;;;5068571;28;20162;-52
2022/10/22 04:56:20;;;;;;;3.27;1.97;;;18.90;75.80;20.00;100264.00;;;;5077289;28;20224;-54
2022/10/22 04:58:57;;;;;;;2.30;2.00;;;18.90;75.80;20.00;100270.00;;;;5076260;28;20209;-59
2022/10/22 05:01:30;;;;;;;3.00;2.10;;;18.90;75.80;20.00;100278.00;;;;5073383;28;20160;-54
2022/10/22 05:03:58;;;;;;;3.17;2.00;;;18.90;75.80;20.00;100280.00;;;;5068212;28;20162;-54
2022/10/22 05:06:24;;;;;;;2.80;2.17;;;18.80;75.60;19.90;100280.00;;;;5068517;28;20200;-54
2022/10/22 05:08:57;;;;;;;3.07;2.00;;;18.80;75.60;20.00;100273.00;;;;5067986;28;20201;-54
2022/10/22 05:11:29;;;;;;;2.57;1.90;;;18.80;75.60;19.90;100281.00;;;;5068486;28;20169;-54
2022/10/22 05:13:56;;;;;;;2.37;2.00;;;18.80;75.50;19.90;100286.00;;;;5070128;28;20166;-54
2022/10/22 05:16:21;;;;;;;2.93;2.10;;;18.80;75.50;19.90;100280.00;;;;5071121;28;20738;-54
2022/10/22 05:18:47;;;;;;;3.30;2.00;;;18.90;75.60;19.90;100213.00;;;;5069641;28;20284;-53
2022/10/22 05:21:15;;;;;;;4.33;2.23;;;18.80;75.40;19.90;100278.00;;;;5072116;28;20170;-54
2022/10/22 05:23:42;;;;;;;2.97;1.90;;;18.80;75.50;19.90;100282.00;;;;5072484;28;20299;-54
2022/10/22 05:26:09;;;;;;;2.77;2.13;;;18.80;75.40;19.90;100292.00;;;;5072652;28;20172;-54
2022/10/22 05:28:35;;;;;;;2.30;2.10;;;18.80;75.40;19.90;100277.00;;;;5072694;28;20566;-53
2022/10/22 05:31:01;;;;;;;2.80;2.10;;;18.80;75.30;19.90;100289.00;;;;5070747;28;20188;-53
2022/10/22 05:33:28;;;;;;;3.33;2.27;;;18.80;75.20;19.90;100299.00;;;;5071869;28;20181;-54
2022/10/22 05:35:53;;;;;;;2.43;2.10;;;18.80;75.40;19.90;100292.00;;;;5072005;28;20667;-54
2022/10/22 05:38:19;;;;;;;2.03;1.90;;;18.80;75.20;19.90;100293.00;;;;5072157;28;20216;-55
2022/10/22 05:40:45;;;;;;;2.20;2.10;;;18.80;75.20;19.90;100299.00;;;;5071690;28;20215;-56
2022/10/22 05:43:11;;;;;;;3.37;1.90;;;18.80;75.20;19.90;100303.00;;;;5080897;28;20185;-54
2022/10/22 05:45:38;;;;;;;2.20;2.00;;;18.80;75.20;19.90;100310.00;;;;5085599;28;20174;-53
2022/10/22 05:48:04;;;;;;;2.40;2.00;;;18.80;75.20;19.90;100315.00;;;;5071793;28;20228;-54
2022/10/22 05:50:30;;;;;;;3.30;2.00;;;18.80;75.30;19.90;100310.00;;;;5070343;28;20654;-54
2022/10/22 05:52:55;;;;;;;3.37;2.13;;;18.80;75.30;19.90;100313.00;;;;5071553;28;20173;-54
2022/10/22 05:55:21;;;;;;;2.07;1.90;;;18.80;75.30;19.80;100310.00;;;;5071542;28;20185;-54
2022/10/22 05:57:48;;;;;;;2.70;2.10;;;18.80;75.20;19.90;100319.00;;;;5070350;28;20174;-54
2022/10/22 06:00:15;;;;;;;2.20;2.00;;;18.80;75.10;19.80;100332.00;;;;5071684;28;20732;-54
2022/10/22 06:02:41;;;;;;;2.10;1.90;;;18.80;75.10;19.90;100331.00;;;;5071275;28;20173;-54
2022/10/22 06:05:07;;;;;;;2.67;2.07;;;18.80;75.10;19.80;100326.00;;;;5071440;28;20166;-54
2022/10/22 06:07:33;;;;;;;2.30;2.10;;;18.70;75.00;19.80;100339.00;;;;5071788;28;20515;-54
2022/10/22 06:09:59;;;;;;;2.40;2.13;;;18.70;75.00;19.80;100341.00;;;;5081332;28;20205;-54
2022/10/22 06:12:24;;;;;;;2.60;2.20;;;18.70;75.10;19.80;100344.00;;;;5077122;28;20169;-55
2022/10/22 06:14:50;;;;;;;2.37;2.17;;;18.80;75.10;19.80;100336.00;;;;5071548;28;20190;-53
2022/10/22 06:17:18;;;;;;;2.90;2.23;;;18.70;75.00;19.80;100343.00;;;;5070843;28;20182;-53
2022/10/22 06:19:44;;;;;;;2.30;2.10;;;18.70;75.00;19.80;100344.00;;;;5070984;28;20214;-53
2022/10/22 06:22:09;;;;;;;4.17;2.00;;;18.70;75.10;19.80;100353.00;;;;5071330;28;20181;-53
2022/10/22 06:24:35;;;;;;;2.30;2.10;;;18.70;75.00;19.80;100360.00;;;;5071372;28;20165;-54
2022/10/22 06:27:01;;;;;;;2.60;2.40;;;18.70;75.00;19.80;100363.00;;;;5074248;28;20208;-54
2022/10/22 06:29:27;;;;;;;2.30;2.00;;;18.70;75.00;19.80;100370.00;;;;5075116;28;20228;-53
2022/10/22 06:31:52;;;;;;;2.47;2.20;;;18.70;75.10;19.80;100371.00;;;;5076320;28;20182;-54
2022/10/22 06:34:18;;;;;;;2.30;2.10;;;18.70;75.10;19.80;100382.00;;;;5074495;28;20179;-54
2022/10/22 06:36:45;;;;;;;2.40;2.00;;;18.70;75.10;19.80;100387.00;;;;5072563;28;20185;-54
2022/10/22 06:39:12;;;;;;;2.63;2.10;;;18.70;75.00;19.80;100385.00;;;;5070085;28;20752;-54
2022/10/22 06:41:38;;;;;;;2.10;2.00;;;18.70;75.10;19.80;100398.00;;;;5069790;28;20631;-54
2022/10/22 06:44:04;;;;;;;2.50;2.30;;;18.70;75.00;19.80;100396.00;;;;5070947;28;20200;-53
2022/10/22 06:46:30;;;;;;;3.97;2.13;;;18.70;75.10;19.80;100408.00;;;;5071160;28;20170;-53
2022/10/22 06:49:01;;;;;;;2.40;2.20;;;18.70;75.00;19.70;100407.00;;;;5070690;28;20202;-54
2022/10/22 06:51:27;;;;;;;2.90;2.00;;;18.70;75.00;19.70;100399.00;;;;5070817;28;20170;-53
2022/10/22 06:53:54;;;;;;;2.20;2.00;;;18.70;75.00;19.70;100410.00;;;;5070858;28;20183;-53
2022/10/22 06:56:21;;;;;;;2.00;1.90;;;18.60;74.90;19.70;100408.00;;;;5070530;28;20246;-53
2022/10/22 06:58:51;;;;;;;3.43;2.40;;;18.70;75.00;19.70;100404.00;;;;5070437;28;20209;-54
2022/10/22 07:01:19;;;;;;;2.10;2.00;;;18.60;75.00;19.70;100405.00;;;;5070382;28;20641;-53
2022/10/22 07:03:45;;;;;;;2.37;2.00;;;18.60;74.90;19.70;100415.00;;;;5070428;28;20617;-53
2022/10/22 07:06:13;;;;;;;2.50;2.30;;;18.60;74.90;19.70;100422.00;;;;5070461;28;20245;-53
2022/10/22 07:08:39;;;;;;;2.47;2.20;;;18.60;74.90;19.70;100420.00;;;;5070391;28;20856;-53
2022/10/22 07:11:09;;;;;;;3.63;2.10;;;18.60;74.90;19.70;100430.00;;;;5070192;28;20806;-54
2022/10/22 07:13:35;;;;;;;2.10;2.00;;;18.60;75.00;19.70;100429.00;;;;5071877;28;20536;-54
2022/10/22 07:16:01;;;;;;;2.43;2.23;;;18.60;74.90;19.70;100427.00;;;;5071060;28;20189;-53
2022/10/22 07:18:27;;;;;;;2.37;2.07;;;18.70;75.10;19.70;100434.00;;;;5070452;28;20228;-53
2022/10/22 07:20:53;;;;;;;2.33;2.13;;;18.60;74.90;19.70;100442.00;;;;5077980;28;20166;-53
2022/10/22 07:23:19;;;;;;;2.20;2.00;;;18.60;74.90;19.70;100440.00;;;;5077170;28;20239;-53
2022/10/22 07:25:45;;;;;;;2.37;2.17;;;18.60;74.90;19.70;100454.00;;;;5070643;28;20196;-53
2022/10/22 07:28:10;;;;;;;2.07;1.97;;;18.60;74.90;19.70;100441.00;;;;5070794;28;20653;-53
2022/10/22 07:30:36;;;;;;;2.30;2.10;;;18.60;74.90;19.60;100447.00;;;;5069681;28;20713;-53
2022/10/22 07:33:02;;;;;;;2.20;2.00;;;18.60;74.90;19.60;100447.00;;;;5070252;28;20184;-53
2022/10/22 07:35:28;;;;;;;2.20;2.00;;;18.60;74.80;19.60;100444.00;;;;5069849;28;20178;-53
2022/10/22 07:37:54;;;;;;;2.23;2.03;;;18.60;74.80;19.60;100454.00;;;;5070127;28;20627;-53
2022/10/22 07:40:19;;;;;;;2.10;2.00;;;18.60;74.80;19.60;100467.00;;;;5069620;28;20257;-55
2022/10/22 07:42:45;;;;;;;2.30;2.10;;;18.60;74.80;19.60;100465.00;;;;5069585;28;20177;-52
2022/10/22 07:45:11;;;;;;;2.57;2.20;;;18.60;74.80;19.60;100459.00;;;;5069836;28;20176;-53
2022/10/22 07:47:36;;;;;;;2.37;2.17;;;18.60;74.80;19.60;100466.00;;;;5070153;28;20176;-53
2022/10/22 07:50:03;;;;;;;2.00;1.90;;;18.50;74.80;19.60;100472.00;;;;5071173;28;20189;-53
2022/10/22 07:52:28;;;;;;;2.40;2.20;;;18.50;74.90;19.60;100476.00;;;;5080005;28;20180;-53
2022/10/22 07:54:54;;;;;;;2.30;2.10;;;18.60;74.90;19.60;100483.00;;;;5074227;28;20178;-54
2022/10/22 07:57:20;;;;;;;2.57;2.10;;;18.60;74.90;19.60;100482.00;;;;5069776;28;20174;-53
2022/10/22 07:59:45;;;;;;;2.40;2.20;;;18.60;74.90;19.60;100491.00;;;;5071936;28;20351;-52
2022/10/22 08:02:11;;;;;;;2.43;2.00;;;18.60;74.90;19.60;100490.00;;;;5088192;28;20157;-53
2022/10/22 08:04:37;;;;;;;2.40;2.20;;;18.60;74.80;19.60;100488.00;;;;5000451;28;20176;-53
2022/10/22 08:07:03;;;;;;;2.40;2.20;;;18.60;74.90;19.60;100492.00;;;;5088727;28;20199;-54
2022/10/22 08:09:29;;;;;;;2.30;2.10;;;18.60;75.00;19.60;100500.00;;;;5088312;28;20199;-53
2022/10/22 08:11:55;;;;;;;2.40;2.20;;;18.60;75.00;19.60;100512.00;;;;5088362;28;20168;-53
2022/10/22 08:14:20;;;;;;;6.27;2.40;;;18.60;75.20;19.60;100507.00;;;;5090629;28;20192;-53
2022/10/22 08:16:46;;;;;;;4.70;2.50;;;18.60;75.40;19.70;100505.00;;;;5094669;28;20172;-53
2022/10/22 08:19:12;;;;;;;3.73;2.40;;;18.60;75.40;19.60;100511.00;;;;5094479;28;20201;-56
2022/10/22 08:21:38;;;;;;;5.07;2.50;;;18.60;75.40;19.60;100508.00;;;;5101264;28;20182;-53
2022/10/22 08:24:05;;;;;;;5.50;2.40;;;18.60;75.40;19.70;100522.00;;;;5093887;28;20169;-54
2022/10/22 08:26:31;;;;;;;3.63;2.33;;;18.60;75.40;19.60;100521.00;;;;5088915;28;20153;-53
2022/10/22 08:28:57;;;;;;;4.30;2.67;;;18.60;75.40;19.60;100522.00;;;;5088202;28;20199;-54
2022/10/22 08:31:23;;;;;;;4.43;2.40;;;18.60;75.60;19.60;100526.00;;;;5100461;28;20169;-55
2022/10/22 08:33:49;;;;;;;2.60;2.40;;;18.60;75.60;19.60;100528.00;;;;5097221;28;20173;-53
2022/10/22 08:36:14;;;;;;;4.93;2.50;;;18.60;75.60;19.60;100543.00;;;;5088934;28;20191;-53
2022/10/22 08:38:40;;;;;;;3.60;2.30;;;18.60;75.60;19.60;100535.00;;;;5087702;28;20208;-53
2022/10/22 08:41:17;;;;;;;5.70;2.50;;;18.60;75.60;19.60;100531.00;;;;5088979;28;20180;-54
2022/10/22 08:44:10;;;;;;;5.50;2.43;;;18.60;75.70;19.60;100534.00;;;;5071269;28;20156;-52
2022/10/22 08:46:58;;;;;;;4.27;2.37;;;18.60;75.60;19.60;100534.00;;;;5087577;28;20188;-53
2022/10/22 08:49:30;;;;;;;4.57;2.30;;;18.60;75.60;19.60;100536.00;;;;5087533;28;20572;-53
2022/10/22 08:51:56;;;;;;;4.00;2.50;;;18.60;75.70;19.60;100542.00;;;;5088328;28;20222;-54
2022/10/22 08:54:50;;;;;;;2.90;2.40;;;18.60;75.70;19.60;100549.00;;;;5087734;28;20203;-54
2022/10/22 08:57:45;;;;;;;2.47;2.20;;;18.60;75.70;19.60;100556.00;;;;5088887;28;20181;-53
2022/10/22 09:00:33;;;;;;;2.33;2.13;;;18.60;76.60;19.60;100546.00;;;;5068807;28;20193;-56
2022/10/22 09:03:33;;;;;;;3.63;2.50;;;18.50;75.70;19.60;100567.00;;;;5023705;28;20168;-53
2022/10/22 09:06:29;;;;;;;3.40;2.30;;;18.60;75.70;19.60;100573.00;;;;5088131;28;20192;-55
2022/10/22 09:08:56;;;;;;;3.70;2.50;;;18.50;75.70;19.60;100561.00;;;;5086600;28;20197;-54
2022/10/22 09:11:26;;;;;;;2.93;2.37;;;18.60;75.80;19.60;100576.00;;;;5087439;28;20230;-54
2022/10/22 09:13:53;;;;;;;3.30;2.40;;;18.60;75.80;19.60;100563.00;;;;5087797;28;20528;-52
2022/10/22 09:17:03;;;;;;;3.10;2.33;;;18.60;75.80;19.60;100578.00;;;;5086957;28;20168;-53
2022/10/22 09:19:41;;;;;;;3.83;2.20;;;18.60;75.80;19.60;100564.00;;;;5087479;28;20211;-52
2022/10/22 09:22:32;;;;;;;2.90;2.23;;;18.50;75.70;19.60;100577.00;;;;5088875;28;20156;-52
2022/10/22 09:25:34;;;;;;;3.23;2.17;;;18.50;75.70;19.60;100582.00;;;;5070214;28;20172;-53
2022/10/22 09:28:00;;;;;;;3.27;2.20;;;18.50;75.70;19.60;100597.00;;;;5087546;28;20191;-54
2022/10/22 09:30:29;;;;;;;2.97;2.30;;;18.50;75.70;19.60;100594.00;;;;5088400;28;20289;-54
2022/10/22 09:33:23;;;;;;;3.17;2.30;;;18.60;75.80;19.60;100591.00;;;;5088251;28;20229;-52
2022/10/22 09:35:56;;;;;;;3.70;2.20;;;18.50;75.70;19.60;100587.00;;;;5088211;28;20169;-53
2022/10/22 09:38:38;;;;;;;2.87;2.20;;;18.50;75.70;19.60;100583.00;;;;5087011;28;20209;-53
2022/10/22 09:41:04;;;;;;;3.10;2.20;;;18.50;75.70;19.60;100589.00;;;;5087132;28;20161;-53
2022/10/22 09:43:30;;;;;;;2.27;2.10;;;18.50;75.70;19.60;100594.00;;;;5088138;28;20196;-53
2022/10/22 09:46:04;;;;;;;4.90;2.47;;;18.50;75.70;19.60;100596.00;;;;5092530;28;20209;-53
2022/10/22 09:48:39;;;;;;;3.10;2.23;;;18.50;75.70;19.60;100599.00;;;;5090833;28;20206;-53
2022/10/22 09:51:47;;;;;;;3.83;2.33;;;18.50;75.70;19.60;100597.00;;;;5089369;28;20161;-53
2022/10/22 09:54:24;;;;;;;2.73;2.10;;;18.50;75.70;19.60;100604.00;;;;5088259;28;20746;-53
2022/10/22 09:57:15;;;;;;;2.43;2.23;;;18.50;75.70;19.60;100609.00;;;;5088258;28;20172;-53
2022/10/22 09:59:41;;;;;;;2.87;2.03;;;18.50;75.70;19.60;100606.00;;;;5088412;28;20217;-52
2022/10/22 10:02:29;;;;;;;2.30;2.10;;;18.50;75.70;19.60;100613.00;;;;5088994;28;20641;-53
2022/10/22 10:04:56;;;;;;;2.53;2.33;;;18.50;75.70;19.60;100608.00;;;;5087469;28;20180;-54
2022/10/22 10:07:23;;;;;;;3.30;2.27;;;18.50;75.80;19.60;100626.00;;;;5092038;28;20169;-52
2022/10/22 10:09:50;;;;;;;2.20;2.00;;;18.50;75.70;19.60;100624.00;;;;5091777;28;20602;-52
2022/10/22 10:12:42;;;;;;;2.30;2.10;;;18.50;75.80;19.60;100621.00;;;;5074464;28;20165;-53
2022/10/22 10:15:24;;;;;;;2.30;2.10;;;18.50;75.70;19.60;100623.00;;;;5091682;28;20268;-53
2022/10/22 10:18:04;;;;;;;2.30;2.10;;;18.50;75.70;19.60;100629.00;;;;5074667;28;20648;-53
2022/10/22 10:20:47;;;;;;;2.40;2.10;;;18.50;75.70;19.60;100633.00;;;;5090885;28;20167;-53
2022/10/22 10:23:22;;;;;;;2.07;1.90;;;18.50;75.70;19.60;100641.00;;;;5090448;28;20153;-53
2022/10/22 10:26:14;;;;;;;2.20;2.00;;;18.50;75.70;19.60;100635.00;;;;5090816;28;20194;-52
2022/10/22 10:29:01;;;;;;;2.83;2.07;;;18.50;75.70;19.60;100643.00;;;;5091919;28;20570;-53
2022/10/22 10:31:58;;;;;;;4.77;2.20;;;18.50;75.70;19.60;100640.00;;;;5090861;28;20245;-53
2022/10/22 10:34:40;;;;;;;2.87;1.97;;;18.50;75.70;19.60;100641.00;;;;5090396;28;20173;-53
2022/10/22 10:37:41;;;;;;;2.67;2.10;;;18.50;75.70;19.60;100648.00;;;;5091631;28;20185;-53
2022/10/22 10:40:30;;;;;;;2.40;2.00;;;18.50;75.70;19.60;100650.00;;;;5090329;28;20199;-54
2022/10/22 10:43:40;;;;;;;2.00;1.90;;;18.50;75.70;19.60;100652.00;;;;5090034;28;20154;-55
2022/10/22 10:46:40;;;;;;;3.23;2.10;;;18.50;75.70;19.60;100658.00;;;;5063861;28;20185;-52
2022/10/22 10:49:15;;;;;;;2.33;2.13;;;18.50;75.70;19.60;100654.00;;;;5092106;28;20231;-52
2022/10/22 10:52:17;;;;;;;2.40;2.10;;;18.50;75.70;19.60;100649.00;;;;5093642;28;20217;-53
2022/10/22 10:55:03;;;;;;;2.30;2.10;;;18.50;75.70;19.60;100663.00;;;;5095634;28;20235;-54
2022/10/22 10:58:05;;;;;;;3.13;2.00;;;18.50;75.70;19.60;100651.00;;;;5079979;28;20157;-53
2022/10/22 11:00:43;;;;;;;2.13;1.93;;;18.50;75.70;19.60;100642.00;;;;5098857;28;20177;-53
2022/10/22 11:03:53;;;;;;;3.23;2.07;;;18.50;75.70;19.60;100659.00;;;;5039612;28;20236;-58
2022/10/22 11:06:19;;;;;;;3.53;2.40;;;18.50;75.70;19.60;100651.00;;;;5070006;28;20199;-53